createdAt,value
2019-03-28T00:01:40.931Z,99.90
2019-03-28T00:04:07.432Z,99.90
2019-03-28T00:06:33.809Z,99.90
2019-03-28T00:09:00.068Z,99.90
2019-03-28T00:11:26.530Z,99.90
2019-03-28T00:13:52.933Z,99.90
2019-03-28T00:16:19.601Z,99.90
2019-03-28T00:18:46.027Z,99.90
2019-03-28T00:21:12.412Z,99.90
2019-03-28T00:23:46.446Z,99.90
2019-03-28T00:26:12.905Z,99.90
2019-03-28T00:28:39.262Z,99.90
2019-03-28T00:31:05.569Z,99.90
2019-03-28T00:33:31.874Z,99.90
2019-03-28T00:35:58.289Z,99.90
2019-03-28T00:38:25.161Z,99.90
2019-03-28T00:40:51.589Z,99.90
2019-03-28T00:43:17.893Z,99.90
2019-03-28T00:45:44.680Z,99.90
2019-03-28T00:48:10.973Z,99.90
2019-03-28T00:50:37.278Z,99.90
2019-03-28T00:53:03.681Z,99.90
2019-03-28T00:55:30.057Z,99.90
2019-03-28T00:57:56.352Z,99.90
2019-03-28T01:00:22.841Z,99.90
2019-03-28T01:02:49.258Z,99.90
2019-03-28T01:05:15.566Z,99.90
2019-03-28T01:07:41.876Z,99.90
2019-03-28T01:10:08.802Z,99.90
2019-03-28T01:12:35.227Z,99.90
2019-03-28T01:15:01.655Z,99.90
2019-03-28T01:17:27.940Z,99.90
2019-03-28T01:19:54.414Z,99.90
2019-03-28T01:22:20.682Z,99.90
2019-03-28T01:24:47.019Z,99.90
2019-03-28T01:27:13.368Z,99.90
2019-03-28T01:29:39.646Z,99.90
2019-03-28T01:32:05.964Z,99.90
2019-03-28T01:34:33.112Z,99.90
2019-03-28T01:36:59.505Z,99.90
2019-03-28T01:39:25.761Z,99.90
2019-03-28T01:41:52.091Z,99.90
2019-03-28T01:44:18.358Z,99.90
2019-03-28T01:46:44.658Z,99.90
2019-03-28T01:49:11.070Z,99.90
2019-03-28T01:51:37.451Z,99.90
2019-03-28T01:54:03.784Z,99.90
2019-03-28T01:56:30.185Z,99.90
2019-03-28T01:58:56.481Z,99.90
2019-03-28T02:01:22.869Z,99.90
2019-03-28T02:03:49.350Z,99.90
2019-03-28T02:06:15.708Z,99.90
2019-03-28T02:08:42.073Z,99.90
2019-03-28T02:11:08.482Z,99.90
2019-03-28T02:13:34.789Z,99.90
2019-03-28T02:16:01.151Z,99.90
2019-03-28T02:18:27.556Z,99.90
2019-03-28T02:20:54.140Z,99.90
2019-03-28T02:23:20.438Z,99.90
2019-03-28T02:25:46.766Z,99.90
2019-03-28T02:28:13.408Z,99.90
2019-03-28T02:30:39.878Z,99.90
2019-03-28T02:33:06.181Z,99.90
2019-03-28T02:35:32.759Z,99.90
2019-03-28T02:37:59.165Z,99.90
2019-03-28T02:40:25.453Z,99.90
2019-03-28T02:42:51.812Z,99.90
2019-03-28T02:45:18.481Z,99.90
2019-03-28T02:47:44.875Z,99.90
2019-03-28T02:50:11.542Z,99.90
2019-03-28T02:52:37.968Z,99.90
2019-03-28T02:55:05.481Z,99.90
2019-03-28T02:57:41.014Z,99.90
2019-03-28T03:00:00.009Z,99.90
2019-03-28T03:02:26.309Z,99.90
2019-03-28T03:04:52.593Z,99.90
2019-03-28T03:07:18.907Z,99.90
2019-03-28T03:09:45.179Z,99.90
2019-03-28T03:12:11.460Z,99.90
2019-03-28T03:14:37.850Z,99.90
2019-03-28T03:17:04.134Z,99.90
2019-03-28T03:19:30.707Z,99.90
2019-03-28T03:21:57.220Z,99.90
2019-03-28T03:24:23.614Z,99.90
2019-03-28T03:26:50.026Z,99.90
2019-03-28T03:29:16.308Z,99.90
2019-03-28T03:31:42.606Z,99.90
2019-03-28T03:34:09.007Z,99.90
2019-03-28T03:36:35.326Z,99.90
2019-03-28T03:39:01.793Z,99.90
2019-03-28T03:41:28.079Z,99.90
2019-03-28T03:43:54.794Z,99.90
2019-03-28T03:46:21.098Z,99.90
2019-03-28T03:48:47.361Z,99.90
2019-03-28T03:51:14.649Z,99.90
2019-03-28T03:53:41.120Z,99.90
2019-03-28T03:56:07.505Z,99.90
2019-03-28T03:58:33.912Z,99.90
2019-03-28T04:01:00.238Z,99.90
2019-03-28T04:03:26.805Z,99.90
2019-03-28T04:05:53.203Z,99.90
2019-03-28T04:08:19.647Z,99.90
2019-03-28T04:10:45.920Z,99.90
2019-03-28T04:13:12.208Z,99.90
2019-03-28T04:15:38.557Z,99.90
2019-03-28T04:18:05.067Z,99.90
2019-03-28T04:20:31.337Z,99.90
2019-03-28T04:22:57.639Z,99.90
2019-03-28T04:25:23.925Z,99.90
2019-03-28T04:27:50.341Z,99.90
2019-03-28T04:30:17.146Z,99.90
2019-03-28T04:32:43.626Z,99.90
2019-03-28T04:35:10.202Z,99.90
2019-03-28T04:37:36.532Z,99.90
2019-03-28T04:40:06.468Z,99.90
2019-03-28T04:42:33.027Z,99.90
2019-03-28T04:44:59.330Z,99.90
2019-03-28T04:47:25.639Z,99.90
2019-03-28T04:49:51.957Z,99.90
2019-03-28T04:52:18.403Z,99.90
2019-03-28T04:54:45.705Z,99.90
2019-03-28T04:57:14.347Z,99.90
2019-03-28T04:59:41.404Z,99.90
2019-03-28T05:02:08.062Z,99.90
2019-03-28T05:04:34.590Z,99.90
2019-03-28T05:07:01.130Z,99.90
2019-03-28T05:09:27.600Z,99.90
2019-03-28T05:11:54.105Z,99.90
2019-03-28T05:14:20.428Z,99.90
2019-03-28T05:16:46.793Z,99.90
2019-03-28T05:19:13.301Z,99.90
2019-03-28T05:21:39.605Z,99.90
2019-03-28T05:24:06.394Z,99.90
2019-03-28T05:26:32.778Z,99.90
2019-03-28T05:28:59.485Z,99.90
2019-03-28T05:31:26.131Z,99.90
2019-03-28T05:33:52.431Z,99.90
2019-03-28T05:36:18.802Z,99.90
2019-03-28T05:38:45.312Z,99.90
2019-03-28T05:41:11.609Z,99.90
2019-03-28T05:43:37.960Z,99.90
2019-03-28T05:46:04.388Z,99.90
2019-03-28T05:48:30.707Z,99.90
2019-03-28T05:50:57.906Z,99.90
2019-03-28T05:53:24.437Z,99.90
2019-03-28T05:55:50.758Z,99.90
2019-03-28T05:58:19.107Z,99.90
2019-03-28T06:00:45.412Z,99.90
2019-03-28T06:03:11.685Z,99.90
2019-03-28T06:05:38.169Z,99.90
2019-03-28T06:08:04.570Z,99.90
2019-03-28T06:10:31.036Z,99.90
2019-03-28T06:12:57.330Z,99.90
2019-03-28T06:15:27.011Z,99.90
2019-03-28T06:17:54.358Z,99.90
2019-03-28T06:20:20.800Z,99.90
2019-03-28T06:22:48.996Z,99.90
2019-03-28T06:25:16.299Z,99.90
2019-03-28T06:27:42.735Z,99.90
2019-03-28T06:30:09.557Z,99.90
2019-03-28T06:32:42.742Z,99.90
2019-03-28T06:35:07.064Z,99.90
2019-03-28T06:37:33.555Z,99.90
2019-03-28T06:39:59.866Z,99.90
2019-03-28T06:42:26.283Z,99.90
2019-03-28T06:44:52.600Z,99.90
2019-03-28T06:47:21.110Z,99.90
2019-03-28T06:49:47.399Z,99.90
2019-03-28T06:52:13.904Z,99.90
2019-03-28T06:54:40.321Z,99.90
2019-03-28T06:57:06.647Z,99.90
2019-03-28T06:59:37.700Z,99.90
2019-03-28T07:02:01.960Z,99.90
2019-03-28T07:04:28.736Z,99.90
2019-03-28T07:06:55.110Z,99.90
2019-03-28T07:09:24.051Z,99.90
2019-03-28T07:11:50.496Z,99.90
2019-03-28T07:14:16.949Z,99.90
2019-03-28T07:16:43.426Z,99.90
2019-03-28T07:19:09.835Z,99.90
2019-03-28T07:21:36.113Z,99.90
2019-03-28T07:24:02.916Z,99.90
2019-03-28T07:26:29.443Z,99.90
2019-03-28T07:28:55.746Z,99.90
2019-03-28T07:31:22.373Z,99.90
2019-03-28T07:33:53.483Z,99.90
2019-03-28T07:36:20.015Z,99.90
2019-03-28T07:38:46.368Z,99.90
2019-03-28T07:41:12.681Z,99.90
2019-03-28T07:43:39.267Z,99.90
2019-03-28T07:46:06.991Z,99.90
2019-03-28T07:48:33.261Z,99.90
2019-03-28T07:51:01.746Z,99.90
2019-03-28T07:53:28.065Z,99.90
2019-03-28T07:55:54.675Z,99.90
2019-03-28T07:58:21.198Z,99.90
2019-03-28T08:00:47.630Z,99.90
2019-03-28T08:03:14.171Z,99.90
2019-03-28T08:05:40.548Z,99.90
2019-03-28T08:08:06.936Z,99.90
2019-03-28T08:10:33.287Z,99.90
2019-03-28T08:12:59.605Z,99.90
2019-03-28T08:15:26.129Z,99.90
2019-03-28T08:17:52.815Z,99.90
2019-03-28T08:20:19.694Z,99.90
2019-03-28T08:22:45.995Z,99.90
2019-03-28T08:25:13.725Z,99.90
2019-03-28T08:27:40.561Z,99.90
2019-03-28T08:30:18.170Z,99.90
2019-03-28T08:32:39.833Z,99.90
2019-03-28T08:35:06.412Z,99.90
2019-03-28T08:37:34.326Z,99.90
2019-03-28T08:40:02.606Z,99.90
2019-03-28T08:42:29.246Z,99.90
2019-03-28T08:44:55.802Z,99.90
2019-03-28T08:47:22.823Z,99.90
2019-03-28T08:49:49.207Z,99.90
2019-03-28T08:52:15.467Z,99.90
2019-03-28T08:54:41.812Z,99.90
2019-03-28T08:57:08.165Z,99.90
2019-03-28T08:59:34.518Z,99.90
2019-03-28T09:02:01.198Z,99.90
2019-03-28T09:04:27.548Z,99.90
2019-03-28T09:06:54.063Z,99.90
2019-03-28T09:09:21.359Z,99.90
2019-03-28T09:11:48.010Z,99.90
2019-03-28T09:14:14.330Z,99.90
2019-03-28T09:16:40.619Z,99.90
2019-03-28T09:19:06.963Z,99.90
2019-03-28T09:21:33.280Z,99.90
2019-03-28T09:23:59.784Z,99.90
2019-03-28T09:26:26.035Z,99.90
2019-03-28T09:28:52.385Z,99.90
2019-03-28T09:31:20.167Z,99.90
2019-03-28T09:33:46.953Z,99.90
2019-03-28T09:36:13.216Z,99.90
2019-03-28T09:38:40.023Z,99.90
2019-03-28T09:41:06.669Z,99.90
2019-03-28T09:43:33.014Z,99.90
2019-03-28T09:46:00.551Z,99.90
2019-03-28T09:48:27.493Z,99.90
2019-03-28T09:50:54.014Z,99.90
2019-03-28T09:53:20.697Z,99.90
2019-03-28T09:55:46.960Z,99.90
2019-03-28T09:58:13.593Z,99.90
2019-03-28T10:00:41.091Z,99.90
2019-03-28T10:03:07.480Z,99.90
2019-03-28T10:05:33.929Z,99.90
2019-03-28T10:08:02.120Z,99.90
2019-03-28T10:10:28.418Z,99.90
2019-03-28T10:12:54.947Z,99.90
2019-03-28T10:15:21.446Z,99.90
2019-03-28T10:17:47.822Z,99.90
2019-03-28T10:20:14.345Z,99.90
2019-03-28T10:22:40.771Z,99.90
2019-03-28T10:25:07.733Z,99.90
2019-03-28T10:27:34.274Z,99.90
2019-03-28T10:30:00.702Z,99.90
2019-03-28T10:32:27.138Z,99.90
2019-03-28T10:34:53.557Z,99.90
2019-03-28T10:37:20.025Z,99.90
2019-03-28T10:39:46.308Z,99.90
2019-03-28T10:42:12.805Z,99.90
2019-03-28T10:44:39.342Z,99.90
2019-03-28T10:47:05.838Z,99.90
2019-03-28T10:49:34.143Z,99.90
2019-03-28T10:52:03.961Z,99.90
2019-03-28T10:54:29.275Z,99.90
2019-03-28T10:56:57.872Z,99.90
2019-03-28T10:59:25.372Z,99.90
2019-03-28T11:01:53.969Z,99.90
2019-03-28T11:04:20.459Z,99.90
2019-03-28T11:06:46.922Z,99.90
2019-03-28T11:09:13.400Z,99.90
2019-03-28T11:11:39.921Z,99.90
2019-03-28T11:14:06.339Z,99.90
2019-03-28T11:16:32.850Z,99.90
2019-03-28T11:18:59.078Z,99.90
2019-03-28T11:21:25.484Z,99.90
2019-03-28T11:23:51.887Z,99.90
2019-03-28T11:26:18.177Z,99.90
2019-03-28T11:28:44.651Z,99.90
2019-03-28T11:31:11.079Z,99.90
2019-03-28T11:33:37.611Z,99.90
2019-03-28T11:36:04.071Z,99.90
2019-03-28T11:38:31.626Z,99.90
2019-03-28T11:40:57.949Z,99.90
2019-03-28T11:43:24.475Z,99.90
2019-03-28T11:45:51.087Z,99.90
2019-03-28T11:48:17.506Z,99.90
2019-03-28T11:50:43.895Z,99.90
2019-03-28T11:53:10.304Z,99.90
2019-03-28T11:55:36.842Z,99.90
2019-03-28T11:58:03.509Z,99.90
2019-03-28T12:00:29.842Z,99.90
2019-03-28T12:02:56.121Z,99.90
2019-03-28T12:05:22.553Z,99.90
2019-03-28T12:07:48.949Z,99.90
2019-03-28T12:10:15.751Z,99.90
2019-03-28T12:12:42.028Z,99.90
2019-03-28T12:15:09.490Z,99.90
2019-03-28T12:17:35.890Z,99.90
2019-03-28T12:20:05.003Z,99.90
2019-03-28T12:22:31.579Z,99.90
2019-03-28T12:24:57.963Z,99.90
2019-03-28T12:27:27.349Z,99.90
2019-03-28T12:29:53.678Z,99.90
2019-03-28T12:32:20.039Z,99.90
2019-03-28T12:34:46.427Z,99.90
2019-03-28T12:37:12.883Z,99.90
2019-03-28T12:39:39.325Z,99.90
2019-03-28T12:42:05.935Z,99.90
2019-03-28T12:44:32.306Z,99.90
2019-03-28T12:46:58.803Z,99.90
2019-03-28T12:49:25.169Z,99.90
2019-03-28T12:51:52.616Z,99.90
2019-03-28T12:54:19.237Z,99.90
2019-03-28T12:56:45.876Z,99.90
2019-03-28T12:59:12.454Z,99.90
2019-03-28T13:01:38.871Z,99.90
2019-03-28T13:04:05.265Z,99.90
2019-03-28T13:06:31.688Z,99.90
2019-03-28T13:08:58.174Z,99.90
2019-03-28T13:11:24.565Z,99.90
2019-03-28T13:13:51.015Z,99.90
2019-03-28T13:16:17.639Z,99.90
2019-03-28T13:18:43.910Z,99.90
2019-03-28T13:21:13.641Z,99.90
2019-03-28T13:23:38.619Z,99.90
2019-03-28T13:26:05.121Z,99.90
2019-03-28T13:28:31.631Z,99.90
2019-03-28T13:30:58.015Z,99.90
2019-03-28T13:33:24.393Z,99.90
2019-03-28T13:35:50.889Z,99.90
2019-03-28T13:38:17.257Z,99.90
2019-03-28T13:40:44.039Z,99.90
2019-03-28T13:43:10.586Z,99.90
2019-03-28T13:45:36.940Z,99.90
2019-03-28T13:48:03.506Z,99.90
2019-03-28T13:50:29.995Z,99.90
2019-03-28T13:52:56.336Z,99.90
2019-03-28T13:55:22.743Z,99.90
2019-03-28T13:57:52.095Z,99.90
2019-03-28T14:00:20.959Z,99.90
2019-03-28T14:02:57.117Z,99.90
2019-03-28T14:05:16.356Z,99.90
2019-03-28T14:07:43.200Z,99.90
2019-03-28T14:10:09.659Z,99.90
2019-03-28T14:12:36.072Z,99.90
2019-03-28T14:15:04.406Z,99.90
2019-03-28T14:17:35.092Z,99.90
2019-03-28T14:20:02.605Z,99.90
2019-03-28T14:22:28.858Z,99.90
2019-03-28T14:24:55.516Z,99.90
2019-03-28T14:27:22.055Z,99.90
2019-03-28T14:29:48.404Z,99.90
2019-03-28T14:32:14.914Z,99.90
2019-03-28T14:34:41.327Z,99.90
2019-03-28T14:37:07.585Z,99.90
2019-03-28T14:39:33.884Z,99.90
2019-03-28T14:42:00.129Z,99.90
2019-03-28T14:44:26.833Z,99.90
2019-03-28T14:46:53.092Z,99.90
2019-03-28T14:49:19.359Z,99.90
2019-03-28T14:51:45.849Z,99.90
2019-03-28T14:54:12.291Z,99.90
2019-03-28T14:56:39.723Z,99.90
2019-03-28T14:59:07.751Z,99.90
2019-03-28T15:01:34.132Z,99.90
2019-03-28T15:04:00.454Z,99.90
2019-03-28T15:06:26.823Z,99.90
2019-03-28T15:08:53.201Z,99.90
2019-03-28T15:11:19.721Z,99.90
2019-03-28T15:13:46.221Z,99.90
2019-03-28T15:16:12.751Z,99.90
2019-03-28T15:18:38.984Z,99.90
2019-03-28T15:21:05.402Z,99.90
2019-03-28T15:23:31.885Z,99.90
2019-03-28T15:25:58.171Z,99.90
2019-03-28T15:28:24.555Z,99.90
2019-03-28T15:30:50.948Z,99.90
2019-03-28T15:33:17.514Z,99.90
2019-03-28T15:35:43.942Z,99.90
2019-03-28T15:38:10.356Z,99.90
2019-03-28T15:40:36.878Z,99.90
2019-03-28T15:43:03.257Z,99.90
2019-03-28T15:45:29.761Z,99.90
2019-03-28T15:47:56.156Z,99.90
2019-03-28T15:50:22.861Z,99.90
2019-03-28T15:52:49.331Z,99.90
2019-03-28T15:55:16.184Z,99.90
2019-03-28T15:57:42.559Z,99.90
2019-03-28T16:00:10.032Z,99.90
2019-03-28T16:02:36.380Z,99.90
2019-03-28T16:05:04.864Z,99.90
2019-03-28T16:07:31.469Z,99.90
2019-03-28T16:09:57.871Z,99.90
2019-03-28T16:12:24.280Z,99.90
2019-03-28T16:14:50.683Z,99.90
2019-03-28T16:17:17.197Z,99.90
2019-03-28T16:19:45.118Z,99.90
2019-03-28T16:22:12.022Z,99.90
2019-03-28T16:24:38.268Z,99.90
2019-03-28T16:27:04.616Z,99.90
2019-03-28T16:29:30.964Z,99.90
2019-03-28T16:31:57.503Z,99.90
2019-03-28T16:34:23.759Z,99.90
2019-03-28T16:36:50.164Z,99.90
2019-03-28T16:39:16.516Z,99.90
2019-03-28T16:41:42.980Z,99.90
2019-03-28T16:44:09.591Z,99.90
2019-03-28T16:46:35.879Z,99.90
2019-03-28T16:49:05.642Z,99.90
2019-03-28T16:51:31.923Z,99.90
2019-03-28T16:53:58.307Z,99.90
2019-03-28T16:56:26.615Z,99.90
2019-03-28T16:58:55.383Z,99.90
2019-03-28T17:01:21.132Z,99.90
2019-03-28T17:03:47.527Z,99.80
2019-03-28T17:06:13.962Z,99.90
2019-03-28T17:08:43.577Z,99.70
2019-03-28T17:11:12.152Z,99.60
2019-03-28T17:13:38.220Z,99.40
2019-03-28T17:16:04.747Z,99.50
2019-03-28T17:18:31.386Z,99.50
2019-03-28T17:20:57.952Z,99.50
2019-03-28T17:23:24.287Z,99.60
2019-03-28T17:25:50.664Z,99.50
2019-03-28T17:28:17.207Z,98.90
2019-03-28T17:30:43.685Z,99.10
2019-03-28T17:33:10.581Z,98.50
2019-03-28T17:35:37.090Z,98.50
2019-03-28T17:38:03.491Z,98.10
2019-03-28T17:40:29.926Z,97.90
2019-03-28T17:42:56.172Z,97.70
2019-03-28T17:45:22.603Z,97.50
2019-03-28T17:47:48.821Z,97.10
2019-03-28T17:50:15.948Z,97.40
2019-03-28T17:52:42.566Z,97.60
2019-03-28T17:55:09.061Z,97.20
2019-03-28T17:57:35.390Z,97.00
2019-03-28T18:00:03.662Z,97.20
2019-03-28T18:02:30.046Z,97.60
2019-03-28T18:05:08.526Z,97.80
2019-03-28T18:07:24.481Z,98.10
2019-03-28T18:09:50.865Z,97.70
2019-03-28T18:12:17.110Z,97.80
2019-03-28T18:14:43.395Z,97.50
2019-03-28T18:17:09.761Z,97.70
2019-03-28T18:19:36.495Z,97.80
2019-03-28T18:22:04.078Z,97.50
2019-03-28T18:24:30.667Z,97.80
2019-03-28T18:26:56.917Z,97.60
2019-03-28T18:29:23.293Z,97.20
2019-03-28T18:31:51.785Z,97.40
2019-03-28T18:34:17.620Z,97.50
2019-03-28T18:36:47.676Z,97.30
2019-03-28T18:39:14.007Z,97.10
2019-03-28T18:41:40.274Z,97.20
2019-03-28T18:44:06.624Z,97.00
2019-03-28T18:46:33.229Z,96.60
2019-03-28T18:48:59.527Z,97.10
2019-03-28T18:51:25.829Z,97.20
2019-03-28T18:53:52.135Z,97.10
2019-03-28T18:56:18.525Z,97.30
2019-03-28T18:58:50.711Z,97.30
2019-03-28T19:01:17.197Z,97.00
2019-03-28T19:03:44.235Z,96.50
2019-03-28T19:06:15.086Z,96.70
2019-03-28T19:08:44.834Z,96.80
2019-03-28T19:11:17.127Z,96.70
2019-03-28T19:13:43.525Z,97.10
2019-03-28T19:16:10.003Z,97.30
2019-03-28T19:18:36.376Z,97.20
2019-03-28T19:21:05.041Z,97.50
2019-03-28T19:23:31.301Z,97.20
2019-03-28T19:25:58.345Z,97.10
2019-03-28T19:28:29.120Z,97.50
2019-03-28T19:30:55.673Z,97.10
2019-03-28T19:33:22.057Z,97.20
2019-03-28T19:35:49.678Z,97.50
2019-03-28T19:38:16.807Z,97.60
2019-03-28T19:40:43.476Z,97.40
2019-03-28T19:43:20.473Z,97.90
2019-03-28T19:45:40.018Z,97.80
2019-03-28T19:48:07.878Z,97.90
2019-03-28T19:50:34.597Z,98.00
2019-03-28T19:53:03.417Z,98.40
2019-03-28T19:55:29.793Z,98.30
2019-03-28T19:57:56.164Z,98.20
2019-03-28T20:00:22.553Z,98.00
2019-03-28T20:02:49.075Z,98.20
2019-03-28T20:05:15.500Z,97.90
2019-03-28T20:07:45.617Z,98.00
2019-03-28T20:10:16.659Z,98.10
2019-03-28T20:12:39.128Z,98.00
2019-03-28T20:15:08.087Z,97.90
2019-03-28T20:17:34.747Z,97.80
2019-03-28T20:20:03.330Z,97.60
2019-03-28T20:22:30.782Z,97.70
2019-03-28T20:24:58.373Z,98.00
2019-03-28T20:27:24.969Z,98.30
2019-03-28T20:29:51.666Z,98.40
2019-03-28T20:32:18.111Z,98.50
2019-03-28T20:34:44.765Z,98.50
2019-03-28T20:37:11.758Z,98.70
2019-03-28T20:39:38.365Z,98.50
2019-03-28T20:42:04.698Z,98.60
2019-03-28T20:44:31.228Z,98.60
2019-03-28T20:46:58.891Z,98.80
2019-03-28T20:49:25.590Z,98.50
2019-03-28T20:51:54.452Z,98.40
2019-03-28T20:54:21.151Z,98.60
2019-03-28T20:56:47.554Z,98.90
2019-03-28T20:59:13.804Z,98.90
2019-03-28T21:01:42.524Z,98.80
2019-03-28T21:04:10.379Z,98.90
2019-03-28T21:06:37.637Z,99.20
2019-03-28T21:09:05.406Z,99.10
2019-03-28T21:11:31.827Z,99.00
2019-03-28T21:13:58.314Z,98.90
2019-03-28T21:16:24.589Z,99.30
2019-03-28T21:18:51.028Z,99.20
2019-03-28T21:21:17.400Z,99.10
2019-03-28T21:23:43.800Z,99.20
2019-03-28T21:26:10.072Z,99.20
2019-03-28T21:28:47.094Z,98.80
2019-03-28T21:31:05.726Z,98.70
2019-03-28T21:33:32.093Z,98.80
2019-03-28T21:35:58.382Z,98.60
2019-03-28T21:38:24.975Z,98.30
2019-03-28T21:40:51.508Z,98.50
2019-03-28T21:43:17.992Z,98.50
2019-03-28T21:45:44.421Z,98.50
2019-03-28T21:48:10.789Z,98.30
2019-03-28T21:50:38.870Z,98.10
2019-03-28T21:53:05.202Z,98.50
2019-03-28T21:55:31.696Z,98.50
2019-03-28T21:58:01.001Z,98.10
2019-03-28T22:00:27.708Z,97.80
2019-03-28T22:02:54.254Z,97.90
2019-03-28T22:05:20.506Z,97.80
2019-03-28T22:07:49.241Z,98.10
2019-03-28T22:10:17.049Z,98.40
2019-03-28T22:12:43.777Z,98.00
2019-03-28T22:15:10.409Z,98.30
2019-03-28T22:17:38.795Z,98.30
2019-03-28T22:20:06.288Z,98.20
2019-03-28T22:22:32.695Z,98.30
2019-03-28T22:25:19.146Z,98.40
2019-03-28T22:27:47.340Z,98.30
2019-03-28T22:30:14.089Z,98.10
2019-03-28T22:32:40.451Z,98.10
2019-03-28T22:35:07.047Z,97.90
2019-03-28T22:37:33.548Z,98.20
2019-03-28T22:39:59.835Z,98.20
2019-03-28T22:42:29.232Z,98.20
2019-03-28T22:44:55.725Z,98.50
2019-03-28T22:47:22.065Z,98.40
2019-03-28T22:49:48.313Z,98.30
2019-03-28T22:52:14.582Z,98.30
2019-03-28T22:54:41.154Z,98.50
2019-03-28T22:57:07.420Z,98.80
2019-03-28T22:59:33.833Z,99.10
2019-03-28T23:02:00.334Z,98.90
2019-03-28T23:04:26.808Z,98.70
2019-03-28T23:06:53.177Z,98.50
2019-03-28T23:09:19.577Z,98.30
2019-03-28T23:11:45.889Z,98.10
2019-03-28T23:14:12.341Z,98.00
2019-03-28T23:16:38.858Z,97.90
2019-03-28T23:19:05.945Z,98.20
2019-03-28T23:21:32.397Z,98.40
2019-03-28T23:23:58.654Z,98.40
2019-03-28T23:26:25.031Z,98.20
2019-03-28T23:28:51.385Z,98.60
2019-03-28T23:31:17.650Z,98.80
2019-03-28T23:33:43.891Z,98.70
2019-03-28T23:36:10.264Z,98.50
2019-03-28T23:38:36.801Z,98.30
2019-03-28T23:41:03.168Z,98.60
2019-03-28T23:43:29.425Z,98.90
2019-03-28T23:45:55.812Z,99.10
2019-03-28T23:48:22.089Z,99.00
2019-03-28T23:50:48.553Z,98.80
2019-03-28T23:53:14.790Z,98.80
2019-03-28T23:55:41.169Z,98.60
2019-03-28T23:58:07.443Z,98.60
